Time;durP1;ratioP1;P1;durP2;ratioP2;P2;SDS_P1;SDS_P2;PMS_P1;PMS_P2;Temp;Humidity;BMP_temperature;BMP_pressure;BME280_temperature;BME280_humidity;BME280_pressure;Samples;Min_cycle;Max_cycle;Signal;HPM_P1;HPM_P2
2022/11/21 00:00:40;;;;;;;5.05;1.88;;;;;;;4.36;77.69;99229.41;4943821;28;20065;-59
2022/11/21 00:03:09;;;;;;;5.35;1.40;;;;;;;4.36;77.44;99229.41;4942817;28;20114;-60
2022/11/21 00:05:39;;;;;;;5.93;1.85;;;;;;;4.35;77.54;99227.69;4945463;28;20074;-60
2022/11/21 00:08:07;;;;;;;10.77;2.97;;;;;;;4.35;78.23;99217.44;4943226;28;20587;-59
2022/11/21 00:10:36;;;;;;;9.70;2.83;;;;;;;4.36;78.02;99214.00;4944716;28;21303;-59
2022/11/21 00:13:04;;;;;;;7.65;1.90;;;;;;;4.37;77.81;99210.63;4943404;28;20523;-57
2022/11/21 00:15:31;;;;;;;8.13;2.88;;;;;;;4.36;77.63;99208.88;4941268;28;20058;-58
2022/11/21 00:18:01;;;;;;;8.73;2.35;;;;;;;4.37;77.67;99215.75;4936206;28;20074;-60
2022/11/21 00:20:28;;;;;;;10.50;1.75;;;;;;;4.37;77.91;99220.88;4939576;28;20550;-59
2022/11/21 00:22:54;;;;;;;5.10;1.50;;;;;;;4.36;77.49;99221.69;4940237;28;20055;-60
2022/11/21 00:25:21;;;;;;;8.80;1.50;;;;;;;4.35;77.64;99212.31;4938832;28;20798;-60
2022/11/21 00:27:48;;;;;;;10.75;1.85;;;;;;;4.35;77.22;99204.59;4939788;28;20102;-59
2022/11/21 00:30:14;;;;;;;6.63;1.90;;;;;;;4.36;77.56;99203.75;4940311;28;20134;-60
2022/11/21 00:32:41;;;;;;;5.38;1.63;;;;;;;4.35;77.73;99207.16;4937887;28;20070;-59
2022/11/21 00:35:08;;;;;;;6.97;1.30;;;;;;;4.37;77.87;99191.81;4936269;28;20858;-59
2022/11/21 00:37:34;;;;;;;4.57;1.42;;;;;;;4.40;77.89;99198.66;4945794;28;20059;-59
2022/11/21 00:40:01;;;;;;;6.93;1.33;;;;;;;4.41;78.06;99195.25;4939811;28;20113;-59
2022/11/21 00:42:28;;;;;;;3.25;1.02;;;;;;;4.42;77.21;99187.56;4938279;28;20082;-59
2022/11/21 00:44:54;;;;;;;3.42;1.50;;;;;;;4.44;77.72;99190.16;4939157;28;20070;-59
2022/11/21 00:47:21;;;;;;;6.22;2.17;;;;;;;4.46;77.62;99198.72;4940516;28;20621;-59
2022/11/21 00:49:48;;;;;;;6.15;1.48;;;;;;;4.46;77.15;99183.34;4935464;28;20086;-58
2022/11/21 00:52:16;;;;;;;3.05;1.23;;;;;;;4.48;77.34;99182.50;4934677;28;20051;-59
2022/11/21 00:54:43;;;;;;;6.35;1.50;;;;;;;4.48;77.84;99181.63;4943673;28;20047;-59
2022/11/21 00:57:09;;;;;;;3.55;1.45;;;;;;;4.50;78.26;99177.38;4944902;28;20079;-60
2022/11/21 00:59:36;;;;;;;5.13;1.25;;;;;;;4.53;78.24;99169.72;4943043;28;20510;-59
2022/11/21 01:02:04;;;;;;;8.57;1.85;;;;;;;4.52;78.43;99162.84;4940006;28;20117;-60
2022/11/21 01:04:32;;;;;;;4.75;1.10;;;;;;;4.53;78.16;99156.91;4942478;28;20500;-59
2022/11/21 01:06:59;;;;;;;4.47;1.30;;;;;;;4.54;78.10;99170.56;4945120;28;20055;-58
2022/11/21 01:09:27;;;;;;;3.72;0.95;;;;;;;4.56;78.80;99174.00;4943288;28;20487;-58
2022/11/21 01:11:55;;;;;;;5.82;1.27;;;;;;;4.57;78.56;99170.59;4940809;28;20368;-58
2022/11/21 01:14:22;;;;;;;3.63;0.82;;;;;;;4.55;77.80;99178.28;4936503;28;20075;-60
2022/11/21 01:16:49;;;;;;;4.47;1.27;;;;;;;4.53;78.41;99168.84;4937277;28;20692;-59
2022/11/21 01:19:16;;;;;;;3.45;0.82;;;;;;;4.54;78.03;99161.19;4937731;28;20775;-60
2022/11/21 01:21:45;;;;;;;6.60;1.40;;;;;;;4.54;78.18;99155.19;4935916;28;20050;-59
2022/11/21 01:24:13;;;;;;;4.80;1.15;;;;;;;4.55;78.68;99172.28;4935727;28;20050;-59
2022/11/21 01:26:42;;;;;;;7.97;1.08;;;;;;;4.55;78.39;99183.41;4936582;28;20051;-57
2022/11/21 01:29:10;;;;;;;3.42;1.25;;;;;;;4.57;78.17;99186.84;4940247;28;20043;-59
2022/11/21 01:31:39;;;;;;;2.30;1.20;;;;;;;4.58;77.83;99193.69;4939733;28;20049;-58
2022/11/21 01:34:07;;;;;;;3.80;1.55;;;;;;;4.58;78.36;99198.81;4936474;28;20044;-59
2022/11/21 01:36:35;;;;;;;5.25;1.30;;;;;;;4.60;78.28;99203.97;4940025;28;20168;-59
2022/11/21 01:39:05;;;;;;;9.18;1.00;;;;;;;4.61;78.07;99203.97;4939962;28;20260;-59
2022/11/21 01:41:38;;;;;;;5.65;1.05;;;;;;;4.61;78.06;99193.72;4940406;28;20521;-59
2022/11/21 01:44:44;;;;;;;3.17;1.15;;;;;;;4.58;78.20;99198.81;4944356;28;20063;-59
2022/11/21 01:47:12;;;;;;;7.75;1.10;;;;;;;4.59;77.93;99197.97;4940696;28;20047;-59
2022/11/21 01:49:40;;;;;;;4.25;1.10;;;;;;;4.60;78.52;99199.66;4941310;28;20078;-57
2022/11/21 01:52:15;;;;;;;5.10;0.98;;;;;;;4.59;78.60;99192.84;4943270;28;20066;-59
2022/11/21 01:57:28;;;;;;;18.45;4.03;;;;;;;4.60;78.10;99175.75;5019271;27;20817;-59
2022/11/21 02:00:06;;;;;;;20.38;5.28;;;;;;;4.59;78.41;99180.00;5000844;28;20073;-59
2022/11/21 02:02:37;;;;;;;7.22;2.33;;;;;;;4.59;78.11;99174.03;4997925;28;20608;-58
2022/11/21 02:05:07;;;;;;;10.63;1.83;;;;;;;4.58;78.09;99162.91;4997714;28;20164;-59
2022/11/21 02:07:38;;;;;;;7.43;1.35;;;;;;;4.57;77.85;99153.50;4995101;28;20653;-57
2022/11/21 02:10:05;;;;;;;6.00;1.52;;;;;;;4.55;78.41;99147.50;5001160;28;20145;-59
2022/11/21 02:12:40;;;;;;;9.25;1.95;;;;;;;4.53;78.17;99138.94;5004957;28;20125;-59
2022/11/21 02:15:07;;;;;;;9.57;1.67;;;;;;;4.51;77.90;99125.25;4999600;28;20438;-59
2022/11/21 02:17:33;;;;;;;2.60;1.02;;;;;;;4.50;78.11;99118.41;4997596;28;20046;-59
2022/11/21 02:20:05;;;;;;;8.05;2.60;;;;;;;4.47;78.25;99103.88;5000861;28;20509;-59
2022/11/21 02:25:31;;;;;;;3.33;1.65;;;;;;;4.46;78.49;99091.03;5049437;27;20402;-58
2022/11/21 02:28:01;;;;;;;4.53;2.45;;;;;;;4.45;78.08;99086.72;5012087;28;20575;-58
2022/11/21 02:30:30;;;;;;;8.90;1.67;;;;;;;4.44;77.89;99078.19;5016135;28;20144;-60
2022/11/21 02:32:58;;;;;;;3.85;1.63;;;;;;;4.43;78.19;99070.47;5017099;28;20141;-60
2022/11/21 02:35:25;;;;;;;3.80;1.63;;;;;;;4.42;78.24;99066.22;5019856;28;20112;-59
2022/11/21 02:37:58;;;;;;;4.68;1.73;;;;;;;4.43;77.91;99060.22;5010564;28;20065;-59
2022/11/21 02:40:31;;;;;;;4.20;2.67;;;;;;;4.40;78.31;99049.94;5015882;28;20041;-58
2022/11/21 02:43:18;;;;;;;7.15;1.95;;;;;;;4.35;78.28;99045.66;5015627;28;20096;-58
2022/11/21 02:45:45;;;;;;;6.18;0.98;;;;;;;4.37;78.49;99045.66;5012773;28;20318;-60
2022/11/21 02:48:12;;;;;;;3.78;1.45;;;;;;;4.36;78.37;99047.34;5014164;28;20064;-59
2022/11/21 02:50:42;;;;;;;3.72;1.05;;;;;;;4.34;78.13;99038.81;5012171;28;20057;-60
2022/11/21 02:53:14;;;;;;;3.42;1.60;;;;;;;4.34;78.52;99041.38;5018361;28;20053;-59
2022/11/21 02:55:42;;;;;;;1.98;1.58;;;;;;;4.33;77.83;99043.94;5019780;28;20049;-59
2022/11/21 02:58:09;;;;;;;6.45;1.60;;;;;;;4.32;78.22;99043.06;5014596;28;20129;-59
2022/11/21 03:00:37;;;;;;;4.70;1.92;;;;;;;4.29;78.12;99022.53;5016119;28;20136;-59
2022/11/21 03:03:04;;;;;;;2.33;1.70;;;;;;;4.26;78.17;99037.03;5013983;28;20050;-59
2022/11/21 03:05:30;;;;;;;5.70;1.85;;;;;;;4.21;78.31;99034.44;5013704;28;20069;-59
2022/11/21 03:07:57;;;;;;;3.53;1.92;;;;;;;4.16;78.09;99042.13;5009548;28;20081;-61
2022/11/21 03:10:24;;;;;;;4.97;2.03;;;;;;;4.10;78.26;99037.81;5002260;28;20093;-58
2022/11/21 03:12:59;;;;;;;6.00;2.05;;;;;;;4.06;78.06;99025.78;4984518;28;20061;-61
2022/11/21 03:15:29;;;;;;;5.57;2.08;;;;;;;4.03;78.12;99015.53;5011511;28;20555;-59
2022/11/21 03:17:56;;;;;;;5.63;1.70;;;;;;;4.00;78.26;99000.13;5011621;28;20686;-60
2022/11/21 03:20:23;;;;;;;2.92;1.65;;;;;;;3.99;78.00;98993.31;5009014;28;20054;-59
2022/11/21 03:22:50;;;;;;;7.78;1.98;;;;;;;3.98;78.03;98996.69;5012204;28;20045;-59
2022/11/21 03:25:17;;;;;;;5.55;2.33;;;;;;;3.96;77.77;98983.88;5014146;28;20057;-59
2022/11/21 03:27:43;;;;;;;3.17;1.80;;;;;;;3.94;77.92;98977.03;5014027;28;20136;-59
2022/11/21 03:30:10;;;;;;;6.70;2.13;;;;;;;3.91;78.20;98964.19;5012899;28;20091;-58
2022/11/21 03:32:37;;;;;;;6.18;1.88;;;;;;;3.89;77.86;98968.47;5016997;28;20145;-58
2022/11/21 03:35:04;;;;;;;7.20;1.83;;;;;;;3.86;77.88;98961.63;5009009;28;20060;-59
2022/11/21 03:37:31;;;;;;;4.50;1.63;;;;;;;3.84;77.96;98964.16;5005124;28;20096;-58
2022/11/21 03:39:57;;;;;;;2.05;0.65;;;;;;;3.83;77.88;98957.34;5003204;28;20601;-59
2022/11/21 03:42:24;;;;;;;3.00;0.50;;;;;;;3.81;77.98;98959.00;5003986;28;20664;-59
2022/11/21 03:44:50;;;;;;;3.72;1.38;;;;;;;3.79;78.13;98950.47;5004779;28;20104;-58
2022/11/21 03:47:17;;;;;;;2.75;1.58;;;;;;;3.79;77.87;98947.91;4996560;28;20473;-59
2022/11/21 03:49:44;;;;;;;3.58;0.75;;;;;;;3.77;78.18;98939.34;5003302;28;20476;-58
2022/11/21 03:52:10;;;;;;;7.78;1.65;;;;;;;3.75;77.99;98923.09;4996938;28;20069;-57
2022/11/21 03:54:37;;;;;;;3.53;1.73;;;;;;;3.76;78.02;98913.72;5005535;28;20121;-58
2022/11/21 03:57:03;;;;;;;6.53;2.25;;;;;;;3.73;78.41;98902.63;4999634;28;20137;-59
2022/11/21 03:59:30;;;;;;;4.68;1.90;;;;;;;3.72;77.99;98900.06;5003015;28;20124;-59
2022/11/21 04:01:56;;;;;;;3.92;1.42;;;;;;;3.72;78.32;98897.47;5003187;28;20067;-57
2022/11/21 04:04:23;;;;;;;3.55;1.27;;;;;;;3.68;77.88;98891.47;5004201;28;20045;-59
2022/11/21 04:06:50;;;;;;;3.47;1.80;;;;;;;3.66;77.79;98876.94;5003303;28;20533;-57
2022/11/21 04:09:17;;;;;;;8.13;2.28;;;;;;;3.64;78.27;98870.97;5005448;28;20038;-58
2022/11/21 04:11:43;;;;;;;5.25;0.75;;;;;;;3.58;78.30;98859.81;4999755;28;20519;-58
2022/11/21 04:14:10;;;;;;;7.22;1.83;;;;;;;3.55;78.48;98864.91;4999327;28;20065;-58
2022/11/21 04:16:36;;;;;;;6.65;1.98;;;;;;;3.49;78.61;98875.13;4998335;28;20129;-59
2022/11/21 04:19:03;;;;;;;3.67;1.88;;;;;;;3.51;78.60;98863.19;5002846;28;20054;-58
2022/11/21 04:21:29;;;;;;;4.43;2.00;;;;;;;3.55;78.68;98862.34;5001199;28;20099;-58
2022/11/21 04:23:56;;;;;;;5.32;2.08;;;;;;;3.57;78.60;98862.38;4980369;28;20054;-57
2022/11/21 04:26:22;;;;;;;2.38;1.38;;;;;;;3.57;78.41;98860.69;4980855;28;20133;-59
2022/11/21 04:28:49;;;;;;;2.55;1.13;;;;;;;3.59;78.77;98858.97;4986355;28;20132;-59
2022/11/21 04:31:16;;;;;;;5.35;2.38;;;;;;;3.59;78.71;98851.28;5001684;28;20433;-58
2022/11/21 04:33:42;;;;;;;1.98;1.52;;;;;;;3.56;78.40;98846.16;4998249;28;20145;-59
2022/11/21 04:36:09;;;;;;;6.38;1.40;;;;;;;3.54;78.32;98840.16;5002742;28;20050;-59
2022/11/21 04:38:36;;;;;;;11.90;1.98;;;;;;;3.53;78.84;98838.47;4999313;28;20089;-59
2022/11/21 04:41:03;;;;;;;4.72;2.28;;;;;;;3.52;78.08;98831.63;4998362;28;20046;-59
2022/11/21 04:43:30;;;;;;;3.22;1.80;;;;;;;3.50;78.40;98828.19;5002368;28;20053;-59
2022/11/21 04:45:56;;;;;;;3.67;1.55;;;;;;;3.50;78.37;98815.41;4999222;28;20141;-59
2022/11/21 04:48:23;;;;;;;2.70;1.52;;;;;;;3.50;78.28;98810.28;4997759;28;20129;-59
2022/11/21 04:50:50;;;;;;;6.20;3.05;;;;;;;3.51;78.13;98814.53;4998695;28;20042;-58
2022/11/21 04:53:16;;;;;;;4.60;2.00;;;;;;;3.53;77.95;98802.63;4994960;28;20061;-57
2022/11/21 04:55:43;;;;;;;8.80;1.70;;;;;;;3.53;77.99;98800.06;4999035;28;20077;-58
2022/11/21 04:58:10;;;;;;;7.03;2.20;;;;;;;3.56;77.94;98783.84;5000422;28;20132;-59
2022/11/21 05:00:36;;;;;;;6.65;2.60;;;;;;;3.57;78.34;98778.75;4996295;28;20498;-58
2022/11/21 05:03:04;;;;;;;6.90;1.95;;;;;;;3.62;78.74;98775.34;5000773;28;20177;-59
2022/11/21 05:05:31;;;;;;;5.32;1.25;;;;;;;3.66;78.52;98779.63;4998511;28;20262;-60
2022/11/21 05:07:58;;;;;;;7.57;1.60;;;;;;;3.69;78.36;98779.66;4994792;28;20151;-58
2022/11/21 05:10:25;;;;;;;3.95;1.35;;;;;;;3.72;78.26;98774.56;4995056;28;20193;-58
2022/11/21 05:15:44;;;;;;;4.63;1.60;;;;;;;3.74;78.18;98752.34;4998605;28;20053;-60
2022/11/21 05:18:11;;;;;;;3.42;1.17;;;;;;;3.77;78.61;98731.88;4994198;28;20153;-58
2022/11/21 05:20:37;;;;;;;3.00;1.48;;;;;;;3.79;78.39;98704.59;4995729;28;20133;-57
2022/11/21 05:23:04;;;;;;;4.22;1.70;;;;;;;3.77;79.04;98690.91;4998792;28;20069;-59
2022/11/21 05:25:31;;;;;;;5.97;1.42;;;;;;;3.76;78.37;98701.13;4998122;28;20208;-58
2022/11/21 05:27:57;;;;;;;7.90;2.05;;;;;;;3.74;78.00;98708.81;5000501;28;20049;-58
2022/11/21 05:30:24;;;;;;;4.50;2.10;;;;;;;3.72;78.32;98702.84;4998619;28;20057;-58
2022/11/21 05:32:51;;;;;;;5.72;1.83;;;;;;;3.71;78.17;98703.69;4998061;28;20160;-59
2022/11/21 05:35:17;;;;;;;3.22;1.85;;;;;;;3.67;78.55;98709.63;5000542;28;20143;-59
2022/11/21 05:37:44;;;;;;;3.88;1.90;;;;;;;3.64;78.16;98709.66;5000901;28;20046;-59
2022/11/21 05:40:11;;;;;;;3.28;1.73;;;;;;;3.60;78.44;98693.41;5000385;28;20140;-58
2022/11/21 05:45:26;;;;;;;4.10;2.33;;;;;;;3.54;78.28;98673.75;4997381;28;20046;-58
2022/11/21 05:47:52;;;;;;;7.25;1.88;;;;;;;3.51;78.80;98673.72;4997278;28;20057;-59
2022/11/21 05:50:19;;;;;;;5.18;2.03;;;;;;;3.47;78.16;98678.00;4998337;28;20084;-58
2022/11/21 05:52:46;;;;;;;3.60;1.40;;;;;;;3.44;77.73;98677.13;4998769;28;20054;-57
2022/11/21 05:55:12;;;;;;;8.52;2.65;;;;;;;3.43;77.85;98670.28;4993799;28;20076;-58
2022/11/21 05:57:39;;;;;;;7.90;1.73;;;;;;;3.41;78.22;98656.66;4999038;28;20116;-60
2022/11/21 06:00:06;;;;;;;7.28;1.88;;;;;;;3.41;78.74;98647.25;4999371;28;20084;-57
2022/11/21 06:05:19;;;;;;;9.07;2.60;;;;;;;3.37;78.62;98654.94;4993759;28;20717;-58
2022/11/21 06:07:46;;;;;;;11.43;1.88;;;;;;;3.39;79.12;98663.44;4998246;28;20123;-60
2022/11/21 06:10:13;;;;;;;4.97;1.95;;;;;;;3.37;78.06;98647.25;4996715;28;20136;-58
2022/11/21 06:12:39;;;;;;;6.78;2.60;;;;;;;3.33;78.33;98639.56;5002300;28;20493;-57
2022/11/21 06:15:06;;;;;;;3.30;1.20;;;;;;;3.31;78.61;98620.75;4998152;28;20528;-57
2022/11/21 06:17:33;;;;;;;6.68;2.53;;;;;;;3.30;77.62;98608.81;4995190;28;20099;-59
2022/11/21 06:19:59;;;;;;;3.17;1.95;;;;;;;3.28;78.07;98597.72;4997317;28;20077;-59
2022/11/21 06:22:26;;;;;;;8.07;2.08;;;;;;;3.28;77.69;98589.19;4996012;28;20463;-58
2022/11/21 06:24:52;;;;;;;8.23;2.20;;;;;;;3.26;78.79;98585.75;4997007;28;20124;-58
2022/11/21 06:27:19;;;;;;;4.00;1.88;;;;;;;3.26;77.63;98568.72;4999222;28;20081;-59
2022/11/21 06:29:46;;;;;;;4.15;1.88;;;;;;;3.28;78.71;98558.50;4996420;28;20089;-60
2022/11/21 06:32:12;;;;;;;3.70;1.80;;;;;;;3.28;78.02;98556.78;5001201;28;20100;-57
2022/11/21 06:34:39;;;;;;;5.20;2.08;;;;;;;3.30;79.00;98546.53;4998612;28;20041;-58
2022/11/21 06:37:06;;;;;;;8.68;2.30;;;;;;;3.28;78.64;98549.09;5000057;28;20090;-58
2022/11/21 06:39:32;;;;;;;5.68;2.10;;;;;;;3.30;78.86;98557.63;5001850;28;20128;-59
2022/11/21 06:42:00;;;;;;;6.07;2.30;;;;;;;3.25;79.21;98559.34;4995627;28;20108;-58
2022/11/21 06:44:27;;;;;;;3.28;2.97;;;;;;;3.26;78.82;98549.94;5000451;28;20050;-58
2022/11/21 06:46:54;;;;;;;7.35;3.17;;;;;;;3.24;79.15;98544.81;4995571;28;20108;-59
2022/11/21 06:49:21;;;;;;;6.18;2.65;;;;;;;3.21;79.40;98532.88;4998966;28;20066;-58
2022/11/21 06:51:48;;;;;;;9.98;3.03;;;;;;;3.23;79.98;98535.44;4997704;28;20501;-56
2022/11/21 06:54:14;;;;;;;7.30;3.42;;;;;;;3.23;79.66;98530.31;5002680;28;20053;-60
2022/11/21 06:56:54;;;;;;;5.57;2.58;;;;;;;3.24;79.14;98521.78;5000783;28;20042;-58
2022/11/21 06:59:21;;;;;;;6.63;2.50;;;;;;;3.25;78.95;98513.28;5003185;28;20061;-58
2022/11/21 07:01:47;;;;;;;6.85;2.83;;;;;;;3.29;79.67;98520.13;4994743;28;20070;-61
2022/11/21 07:04:14;;;;;;;6.65;2.17;;;;;;;3.31;79.09;98513.28;4990689;28;20061;-57
2022/11/21 07:06:40;;;;;;;8.27;2.65;;;;;;;3.31;79.36;98513.28;4992089;28;20052;-59
2022/11/21 07:09:07;;;;;;;12.20;2.55;;;;;;;3.33;79.47;98509.03;4991900;28;20124;-59
2022/11/21 07:11:54;;;;;;;7.53;1.80;;;;;;;3.34;79.69;98500.50;4994797;28;20200;-60
2022/11/21 07:14:20;;;;;;;5.47;3.03;;;;;;;3.37;79.31;98488.56;4997089;28;20512;-58
2022/11/21 07:16:47;;;;;;;5.03;3.20;;;;;;;3.39;79.13;98479.16;5000683;28;20125;-60
2022/11/21 07:19:13;;;;;;;10.85;3.03;;;;;;;3.39;79.37;98468.94;4999791;28;20049;-59
2022/11/21 07:21:41;;;;;;;7.90;3.05;;;;;;;3.36;79.14;98448.44;5000036;28;20076;-60
2022/11/21 07:24:08;;;;;;;6.22;2.83;;;;;;;3.34;79.92;98435.63;4998507;28;20096;-58
2022/11/21 07:26:35;;;;;;;7.00;2.75;;;;;;;3.36;79.15;98440.75;4997713;28;20042;-59
2022/11/21 07:29:01;;;;;;;7.20;2.88;;;;;;;3.38;79.18;98436.50;5002488;28;20168;-60
2022/11/21 07:31:28;;;;;;;7.65;2.72;;;;;;;3.34;79.23;98436.50;4998559;28;20065;-59
2022/11/21 07:33:54;;;;;;;6.55;2.78;;;;;;;3.33;79.60;98429.69;4998088;28;20156;-57
2022/11/21 07:36:21;;;;;;;6.30;2.30;;;;;;;3.39;79.83;98433.09;4999899;28;20112;-59
2022/11/21 07:38:48;;;;;;;8.60;2.53;;;;;;;3.40;79.74;98429.66;5002077;28;20086;-59
2022/11/21 07:41:14;;;;;;;7.35;2.70;;;;;;;3.42;79.45;98438.22;5005952;28;20124;-60
2022/11/21 07:43:41;;;;;;;7.75;2.88;;;;;;;3.43;79.45;98424.56;5006841;28;20128;-59
2022/11/21 07:46:07;;;;;;;10.55;2.75;;;;;;;3.44;79.72;98416.03;5001545;28;20128;-57
2022/11/21 07:48:34;;;;;;;4.72;2.90;;;;;;;3.44;79.33;98405.78;5001414;28;20082;-57
2022/11/21 07:51:03;;;;;;;4.40;1.52;;;;;;;3.46;79.22;98398.97;4997665;28;20460;-59
2022/11/21 07:53:30;;;;;;;3.53;2.17;;;;;;;3.44;80.61;98398.09;5001083;28;20042;-58
2022/11/21 07:55:58;;;;;;;7.03;2.35;;;;;;;3.46;81.04;98397.28;5001075;28;20124;-59
2022/11/21 07:58:25;;;;;;;8.40;1.27;;;;;;;3.44;81.67;98400.66;5000894;28;20634;-59
2022/11/21 08:00:52;;;;;;;7.70;1.98;;;;;;;3.48;81.25;98392.16;5003548;28;20045;-59
2022/11/21 08:03:19;;;;;;;12.50;3.13;;;;;;;3.52;81.24;98387.88;4999536;28;20115;-58
2022/11/21 08:05:45;;;;;;;7.47;2.42;;;;;;;3.51;81.38;98383.63;5000350;28;20125;-57
2022/11/21 08:08:12;;;;;;;5.70;1.95;;;;;;;3.54;82.23;98375.91;5006960;28;20065;-59
2022/11/21 08:10:42;;;;;;;6.40;2.05;;;;;;;3.61;82.02;98372.50;5003859;28;20116;-58
2022/11/21 08:13:09;;;;;;;12.98;2.63;;;;;;;3.59;82.43;98369.94;4998183;28;20460;-60
2022/11/21 08:15:36;;;;;;;6.45;2.15;;;;;;;3.65;82.44;98363.13;4997725;28;20077;-57
2022/11/21 08:18:08;;;;;;;7.30;2.38;;;;;;;3.70;82.08;98361.38;5001641;28;20573;-58
2022/11/21 08:20:34;;;;;;;8.57;1.00;;;;;;;3.72;82.07;98357.13;5001667;28;20468;-60
2022/11/21 08:23:02;;;;;;;8.23;2.17;;;;;;;3.78;82.05;98351.97;5003341;28;20069;-57
2022/11/21 08:25:28;;;;;;;4.55;1.92;;;;;;;3.77;82.18;98337.47;5001616;28;20050;-58
2022/11/21 08:27:56;;;;;;;3.72;1.92;;;;;;;3.84;82.51;98344.28;5004245;28;20100;-58
2022/11/21 08:30:23;;;;;;;8.90;1.83;;;;;;;3.85;82.09;98330.63;4984984;28;20129;-59
2022/11/21 08:32:49;;;;;;;8.10;1.98;;;;;;;3.91;82.03;98328.88;4998327;28;20081;-58
2022/11/21 08:35:16;;;;;;;2.75;2.17;;;;;;;3.88;82.97;98326.34;4999119;28;20034;-58
2022/11/21 08:37:43;;;;;;;9.98;3.58;;;;;;;3.93;82.66;98332.31;4995772;28;20632;-59
2022/11/21 08:40:10;;;;;;;4.88;1.42;;;;;;;3.96;83.08;98315.19;4996937;28;20050;-59
2022/11/21 08:42:36;;;;;;;4.82;1.70;;;;;;;4.02;82.87;98309.19;5001735;28;20073;-59
2022/11/21 08:45:04;;;;;;;5.25;1.50;;;;;;;3.99;83.18;98306.66;4984067;28;20172;-59
2022/11/21 08:47:33;;;;;;;12.10;1.90;;;;;;;4.08;83.41;98304.06;4995895;28;20157;-58
2022/11/21 08:49:59;;;;;;;5.95;2.28;;;;;;;4.11;83.05;98293.81;5003783;28;20112;-60
2022/11/21 08:52:34;;;;;;;9.70;1.85;;;;;;;4.11;83.41;98291.25;5001098;28;20076;-59
2022/11/21 08:55:00;;;;;;;4.43;1.70;;;;;;;4.15;83.41;98286.09;5000955;28;20108;-58
2022/11/21 08:57:27;;;;;;;6.25;2.33;;;;;;;4.24;83.19;98278.34;4999597;28;20080;-58
2022/11/21 08:59:53;;;;;;;4.22;2.10;;;;;;;4.22;83.20;98277.53;5004466;28;20077;-56
2022/11/21 09:02:20;;;;;;;9.10;1.92;;;;;;;4.28;83.33;98271.50;5002762;28;20041;-57
2022/11/21 09:04:46;;;;;;;2.88;1.88;;;;;;;4.28;83.43;98259.53;5000318;28;20066;-57
2022/11/21 09:07:13;;;;;;;4.75;2.65;;;;;;;4.36;82.38;98254.38;4999057;28;20050;-59
2022/11/21 09:09:40;;;;;;;12.32;2.05;;;;;;;4.42;83.18;98243.22;4999414;28;20097;-59
2022/11/21 09:12:06;;;;;;;4.32;2.38;;;;;;;4.37;83.64;98246.69;5001846;28;20049;-59
2022/11/21 09:20:06;;;;;;;9.00;2.05;;;;;;;4.49;83.70;98224.34;4998071;28;20100;-58
2022/11/21 09:22:33;;;;;;;18.98;2.45;;;;;;;4.52;83.69;98218.38;5006219;28;20458;-58
2022/11/21 09:25:00;;;;;;;8.60;2.10;;;;;;;4.56;84.17;98205.50;5001297;28;20100;-59
2022/11/21 09:27:26;;;;;;;8.18;2.15;;;;;;;4.57;83.90;98181.59;4997925;28;20092;-56
2022/11/21 09:29:53;;;;;;;6.05;2.38;;;;;;;4.64;83.82;98182.38;5003704;28;20077;-59
2022/11/21 09:32:20;;;;;;;10.48;2.60;;;;;;;4.66;83.39;98188.31;5001532;28;20053;-59
2022/11/21 09:34:47;;;;;;;11.27;2.22;;;;;;;4.69;83.80;98175.47;4992291;28;20171;-58
2022/11/21 09:37:13;;;;;;;5.97;2.05;;;;;;;4.68;83.30;98168.66;4996259;28;20506;-59
2022/11/21 09:39:40;;;;;;;6.25;1.98;;;;;;;4.73;84.09;98155.78;5000107;28;20132;-58
2022/11/21 09:45:08;;;;;;;8.52;2.85;;;;;;;4.78;82.90;98143.78;5011844;28;20940;-59
2022/11/21 09:47:41;;;;;;;7.90;2.55;;;;;;;4.80;82.86;98126.63;5000293;28;20524;-58
2022/11/21 09:55:31;;;;;;;6.47;2.67;;;;;;;4.91;83.37;98112.84;5058829;27;20735;-58
2022/11/21 09:58:01;;;;;;;6.45;2.35;;;;;;;4.91;83.33;98107.72;5017993;28;20129;-58
2022/11/21 10:00:28;;;;;;;6.88;2.55;;;;;;;4.89;82.68;98106.03;5011286;28;20128;-58
2022/11/21 10:02:55;;;;;;;7.72;2.72;;;;;;;4.93;83.39;98106.84;5013124;28;20053;-58
2022/11/21 10:05:34;;;;;;;11.20;3.50;;;;;;;4.95;83.30;98086.28;5007184;28;20054;-60
2022/11/21 10:08:15;;;;;;;4.55;1.05;;;;;;;5.00;82.34;98071.72;5015875;28;20436;-59
2022/11/21 10:11:21;;;;;;;8.45;2.78;;;;;;;5.01;82.43;98083.66;5013553;28;20085;-56
2022/11/21 10:24:43;;;;;;;9.52;1.98;;;;;;;5.14;83.43;98028.75;5019880;28;20402;-58
2022/11/21 10:27:15;;;;;;;7.72;2.08;;;;;;;5.14;83.23;98023.59;5016303;28;20057;-58
2022/11/21 10:32:37;;;;;;;4.75;2.22;;;;;;;5.17;83.34;98009.06;5016253;27;21063;-59
2022/11/21 10:35:28;;;;;;;9.18;1.50;;;;;;;5.12;82.95;98002.28;4998219;28;20045;-59
2022/11/21 10:40:36;;;;;;;6.35;1.77;;;;;;;5.21;82.87;97985.03;5031222;28;20396;-58
2022/11/21 10:46:00;;;;;;;6.63;2.42;;;;;;;5.26;83.61;97953.31;5034614;28;20405;-57
2022/11/21 10:48:27;;;;;;;6.38;1.13;;;;;;;5.28;83.54;97958.41;4972849;28;20398;-56
2022/11/21 10:56:35;;;;;;;7.18;0.98;;;;;;;5.43;83.09;97915.41;5020375;28;20049;-58
2022/11/21 10:59:18;;;;;;;6.63;1.10;;;;;;;5.40;83.33;97916.28;5017256;28;20145;-60
2022/11/21 11:01:54;;;;;;;15.07;1.50;;;;;;;5.44;83.36;97907.66;5018215;28;20042;-59
2022/11/21 11:04:21;;;;;;;7.93;1.08;;;;;;;5.46;83.60;97899.94;5018668;28;20096;-59
2022/11/21 11:07:26;;;;;;;3.85;1.42;;;;;;;5.45;83.32;97891.41;5017711;28;20060;-60
2022/11/21 11:10:14;;;;;;;8.02;1.65;;;;;;;5.49;83.56;97889.63;5013128;28;20049;-60
2022/11/21 11:15:53;;;;;;;6.68;1.70;;;;;;;5.43;83.25;97869.19;5025330;28;20061;-61
2022/11/21 11:18:22;;;;;;;6.05;1.52;;;;;;;5.40;83.65;97855.53;5018967;28;20095;-60
2022/11/21 11:20:49;;;;;;;3.33;0.98;;;;;;;5.46;84.53;97849.44;5016067;28;20059;-60
2022/11/21 11:25:58;;;;;;;7.50;2.70;;;;;;;5.40;84.00;97824.72;5042403;28;20399;-60
2022/11/21 11:28:32;;;;;;;8.55;3.25;;;;;;;5.38;84.75;97831.59;5014735;28;20129;-61
2022/11/21 11:30:59;;;;;;;9.93;3.00;;;;;;;5.38;84.87;97805.91;5016818;28;20103;-61
2022/11/21 11:38:52;;;;;;;5.55;0.75;;;;;;;5.45;84.69;97787.84;5029580;27;20405;-61
2022/11/21 11:47:29;;;;;;;3.95;1.05;;;;;;;5.36;85.92;97773.44;4995562;28;20100;-61
2022/11/21 11:47:31;;;;;;;4.60;0.80;;;;;;;5.42;85.74;97745.09;5032271;28;20404;-60
2022/11/21 11:50:11;;;;;;;7.95;1.33;;;;;;;5.38;85.84;97739.16;5010297;28;20571;-60
2022/11/21 11:55:34;;;;;;;5.00;1.02;;;;;;;5.33;86.67;97740.97;5044624;27;20401;-60
2022/11/21 11:58:06;;;;;;;9.27;1.52;;;;;;;5.33;86.00;97720.44;5015107;28;20496;-60
2022/11/21 12:00:41;;;;;;;6.30;1.13;;;;;;;5.40;85.93;97711.75;5015286;28;20065;-61
2022/11/21 12:05:58;;;;;;;6.85;1.80;;;;;;;5.49;85.69;97690.19;5024992;28;20746;-60
2022/11/21 12:08:36;;;;;;;7.63;1.73;;;;;;;5.50;86.60;97689.31;4998894;28;20140;-60
2022/11/21 12:15:47;;;;;;;9.30;2.17;;;;;;;5.59;86.56;97677.16;4997193;28;20129;-61
2022/11/21 12:17:05;;;;;;;6.50;1.95;;;;;;;5.64;87.43;97663.34;5009815;28;20046;-59
2022/11/21 12:19:34;;;;;;;5.03;2.08;;;;;;;5.68;87.73;97653.00;4992343;28;20073;-60
2022/11/21 12:22:03;;;;;;;6.45;2.28;;;;;;;5.76;87.15;97645.97;4993948;28;20052;-59
2022/11/21 12:24:29;;;;;;;7.75;2.03;;;;;;;5.79;87.49;97636.50;4999984;28;20042;-61
2022/11/21 12:30:28;;;;;;;8.63;1.88;;;;;;;6.12;85.32;97617.78;5025900;27;20403;-60
2022/11/21 12:33:09;;;;;;;7.57;1.30;;;;;;;5.98;86.50;97617.25;5020201;28;20049;-61
2022/11/21 12:56:59;;;;;;;3.92;0.82;;;;;;;6.26;87.04;97539.50;5024979;28;20429;-61
2022/11/21 12:59:30;;;;;;;5.70;1.10;;;;;;;6.31;87.16;97519.66;4994364;28;20048;-61
2022/11/21 13:04:40;;;;;;;5.68;1.52;;;;;;;6.35;87.45;97505.00;5083739;27;20888;-60
2022/11/21 13:07:07;;;;;;;6.90;1.10;;;;;;;6.39;86.81;97497.13;5040274;28;20320;-60
2022/11/21 13:09:40;;;;;;;5.30;2.08;;;;;;;6.38;86.91;97477.47;5037671;28;20055;-60
2022/11/21 13:15:03;;;;;;;3.15;1.75;;;;;;;6.53;86.79;97473.66;5025014;28;20394;-59
2022/11/21 13:17:48;;;;;;;3.13;1.83;;;;;;;6.59;87.00;97446.91;5013079;28;20041;-61
2022/11/21 13:23:05;;;;;;;9.30;1.25;;;;;;;6.66;86.04;97437.28;5039305;28;20407;-61
2022/11/21 13:25:39;;;;;;;4.47;1.30;;;;;;;6.74;85.76;97424.19;5014878;28;20145;-60
2022/11/21 13:28:28;;;;;;;3.92;0.60;;;;;;;6.76;85.21;97422.44;5016862;28;20097;-60
2022/11/21 13:30:56;;;;;;;4.13;0.80;;;;;;;6.79;85.49;97417.19;5015721;28;20080;-60
2022/11/21 13:53:21;;;;;;;8.00;1.40;;;;;;;7.07;85.41;97346.84;5071653;27;20421;-59
2022/11/21 13:56:28;;;;;;;3.72;1.02;;;;;;;6.91;85.84;97343.91;5058814;28;21592;-60
2022/11/21 13:59:36;;;;;;;3.20;1.25;;;;;;;6.87;86.03;97337.19;5034072;28;20053;-60